createdAt,value
2022-10-05T00:01:30.926Z,9.15
2022-10-05T00:04:11.106Z,9.16
2022-10-05T00:06:39.650Z,9.15
2022-10-05T00:09:13.987Z,9.14
2022-10-05T00:11:42.715Z,9.13
2022-10-05T00:14:17.437Z,9.13
2022-10-05T00:16:46.810Z,9.12
2022-10-05T00:19:26.587Z,9.14
2022-10-05T00:21:58.614Z,9.18
2022-10-05T00:24:26.880Z,9.22
2022-10-05T00:27:01.098Z,9.21
2022-10-05T00:29:29.430Z,9.22
2022-10-05T00:31:59.283Z,9.21
2022-10-05T00:34:27.624Z,9.19
2022-10-05T00:36:59.993Z,9.16
2022-10-05T00:39:29.632Z,9.15
2022-10-05T00:42:23.041Z,9.11
2022-10-05T00:44:55.376Z,9.06
2022-10-05T00:47:35.951Z,9.05
2022-10-05T00:50:29.569Z,9.01
2022-10-05T00:53:06.085Z,8.98
2022-10-05T00:55:48.855Z,8.98
2022-10-05T00:58:28.449Z,9.01
2022-10-05T01:01:09.374Z,9.03
2022-10-05T01:03:50.276Z,9.05
2022-10-05T01:06:25.537Z,9.10
2022-10-05T01:09:05.911Z,9.19
2022-10-05T01:11:42.875Z,9.24
2022-10-05T01:14:19.024Z,9.24
2022-10-05T01:16:56.198Z,9.25
2022-10-05T01:19:43.125Z,9.26
2022-10-05T01:22:29.945Z,9.25
2022-10-05T01:25:17.761Z,9.24
2022-10-05T01:27:57.740Z,9.25
2022-10-05T01:30:26.778Z,9.30
2022-10-05T01:33:06.669Z,9.33
2022-10-05T01:35:49.813Z,9.36
2022-10-05T01:38:32.627Z,9.37
2022-10-05T01:41:10.217Z,9.38
2022-10-05T01:43:45.812Z,9.36
2022-10-05T01:46:25.436Z,9.34
2022-10-05T01:49:17.295Z,9.31
2022-10-05T01:51:58.491Z,9.26
2022-10-05T01:54:39.574Z,9.27
2022-10-05T01:57:16.970Z,9.30
2022-10-05T02:00:01.228Z,9.36
2022-10-05T02:02:34.976Z,9.41
2022-10-05T02:05:10.064Z,9.46
2022-10-05T02:07:43.473Z,9.47
2022-10-05T02:10:18.623Z,9.42
2022-10-05T02:12:51.194Z,9.37
2022-10-05T02:15:25.590Z,9.33
2022-10-05T02:18:01.841Z,9.27
2022-10-05T02:20:34.542Z,9.24
2022-10-05T02:23:09.349Z,9.24
2022-10-05T02:25:40.489Z,9.25
2022-10-05T02:28:13.809Z,9.22
2022-10-05T02:30:48.613Z,9.14
2022-10-05T02:33:25.025Z,9.03
2022-10-05T02:35:55.879Z,8.93
2022-10-05T02:38:35.662Z,8.90
2022-10-05T02:41:12.212Z,8.90
2022-10-05T02:43:48.081Z,8.89
2022-10-05T02:46:28.133Z,8.90
2022-10-05T02:49:09.003Z,8.90
2022-10-05T02:51:48.977Z,8.90
2022-10-05T02:54:25.872Z,8.89
2022-10-05T02:57:04.195Z,8.89
2022-10-05T02:59:37.857Z,8.87
2022-10-05T03:02:15.861Z,8.85
2022-10-05T03:04:55.051Z,8.81
2022-10-05T03:07:29.079Z,8.77
2022-10-05T03:10:05.218Z,8.77
2022-10-05T03:12:54.338Z,8.78
2022-10-05T03:15:48.241Z,8.80
2022-10-05T03:18:27.407Z,8.80
2022-10-05T03:21:11.631Z,8.81
2022-10-05T03:24:02.003Z,8.82
2022-10-05T03:26:40.541Z,8.80
2022-10-05T03:29:29.261Z,8.76
2022-10-05T03:32:06.851Z,8.74
2022-10-05T03:34:39.921Z,8.74
2022-10-05T03:37:15.435Z,8.70
2022-10-05T03:39:51.550Z,8.71
2022-10-05T03:42:30.166Z,8.78
2022-10-05T03:45:04.790Z,8.82
2022-10-05T03:47:43.730Z,8.81
2022-10-05T03:50:28.878Z,8.73
2022-10-05T03:53:03.236Z,8.67
2022-10-05T03:55:41.531Z,8.65
2022-10-05T03:58:17.081Z,8.66
2022-10-05T04:00:52.557Z,8.67
2022-10-05T04:03:28.729Z,8.69
2022-10-05T04:06:03.435Z,8.70
2022-10-05T04:08:40.037Z,8.69
2022-10-05T04:11:15.634Z,8.68
2022-10-05T04:13:49.801Z,8.65
2022-10-05T04:16:34.576Z,8.59
2022-10-05T04:19:10.380Z,8.55
2022-10-05T04:21:46.029Z,8.54
2022-10-05T04:24:22.174Z,8.54
2022-10-05T04:26:57.723Z,8.56
2022-10-05T04:29:34.605Z,8.59
2022-10-05T04:32:27.892Z,8.60
2022-10-05T04:35:18.782Z,8.61
2022-10-05T04:37:57.650Z,8.61
2022-10-05T04:40:44.511Z,8.62
2022-10-05T04:43:19.672Z,8.64
2022-10-05T04:46:06.826Z,8.63
2022-10-05T04:49:09.228Z,8.61
2022-10-05T04:51:51.400Z,8.64
2022-10-05T04:54:34.328Z,8.68
2022-10-05T04:57:08.172Z,8.67
2022-10-05T05:00:06.142Z,8.66
2022-10-05T05:02:49.584Z,8.65
2022-10-05T05:05:31.080Z,8.64
2022-10-05T05:08:18.533Z,8.62
2022-10-05T05:11:06.943Z,8.62
2022-10-05T05:14:06.875Z,8.63
2022-10-05T05:16:39.840Z,8.66
2022-10-05T05:19:23.328Z,8.69
2022-10-05T05:22:03.135Z,8.77
2022-10-05T05:24:55.302Z,8.83
2022-10-05T05:27:40.544Z,8.85
2022-10-05T05:30:19.576Z,8.82
2022-10-05T05:33:00.924Z,8.82
2022-10-05T05:35:58.582Z,8.83
2022-10-05T05:38:34.896Z,8.84
2022-10-05T05:41:11.902Z,8.87
2022-10-05T05:44:03.418Z,8.91
2022-10-05T05:47:02.197Z,8.93
2022-10-05T05:49:33.433Z,8.94
2022-10-05T05:52:10.402Z,8.93
2022-10-05T05:54:42.094Z,8.96
2022-10-05T05:57:16.698Z,8.99
2022-10-05T05:59:58.568Z,9.02
2022-10-05T06:02:32.423Z,9.09
2022-10-05T06:05:10.651Z,9.16
2022-10-05T06:07:39.877Z,9.24
2022-10-05T06:10:17.308Z,9.34
2022-10-05T06:13:01.717Z,9.42
2022-10-05T06:15:37.415Z,9.50
2022-10-05T06:18:12.209Z,9.54
2022-10-05T06:20:44.251Z,9.60
2022-10-05T06:23:17.111Z,9.66
2022-10-05T06:25:55.624Z,9.74
2022-10-05T06:28:26.858Z,9.83
2022-10-05T06:31:06.580Z,9.89
2022-10-05T06:33:46.882Z,9.95
2022-10-05T06:36:31.895Z,10.02
2022-10-05T06:39:26.232Z,10.08
2022-10-05T06:42:08.574Z,10.16
2022-10-05T06:45:07.613Z,10.21
2022-10-05T06:48:04.281Z,10.26
2022-10-05T06:51:03.625Z,10.35
2022-10-05T06:53:56.313Z,10.48
2022-10-05T06:56:30.655Z,10.56
2022-10-05T06:59:07.430Z,10.62
2022-10-05T07:01:48.264Z,10.67
2022-10-05T07:04:36.889Z,10.74
2022-10-05T07:07:16.946Z,10.77
2022-10-05T07:10:00.231Z,10.81
2022-10-05T07:12:44.829Z,10.89
2022-10-05T07:15:42.284Z,10.94
2022-10-05T07:18:31.911Z,10.96
2022-10-05T07:21:04.560Z,10.99
2022-10-05T07:23:52.434Z,11.03
2022-10-05T07:26:29.021Z,11.06
2022-10-05T07:29:18.809Z,11.11
2022-10-05T07:31:57.624Z,11.18
2022-10-05T07:34:34.691Z,11.31
2022-10-05T07:37:25.507Z,11.51
2022-10-05T07:40:04.861Z,11.74
2022-10-05T07:42:52.807Z,11.90
2022-10-05T07:45:32.574Z,12.04
2022-10-05T07:48:12.415Z,12.15
2022-10-05T07:50:52.556Z,12.24
2022-10-05T07:53:25.539Z,12.34
2022-10-05T07:55:57.203Z,12.46
2022-10-05T07:58:30.774Z,12.57
2022-10-05T08:01:10.611Z,12.65
2022-10-05T08:03:49.372Z,12.71
2022-10-05T08:06:32.311Z,12.80
2022-10-05T08:09:10.481Z,12.91
2022-10-05T08:11:47.472Z,13.04
2022-10-05T08:14:24.418Z,13.17
2022-10-05T08:16:57.514Z,13.29
2022-10-05T08:19:33.991Z,13.43
2022-10-05T08:22:06.568Z,13.62
2022-10-05T08:24:48.772Z,13.78
2022-10-05T08:27:25.417Z,13.91
2022-10-05T08:29:58.479Z,14.02
2022-10-05T08:32:31.545Z,14.10
2022-10-05T08:35:14.750Z,14.18
2022-10-05T08:37:45.728Z,14.23
2022-10-05T08:40:38.682Z,14.28
2022-10-05T08:43:16.408Z,14.34
2022-10-05T08:46:18.574Z,14.41
2022-10-05T08:49:10.618Z,14.49
2022-10-05T08:51:55.887Z,14.59
2022-10-05T08:54:38.084Z,14.69
2022-10-05T08:57:31.557Z,14.75
2022-10-05T09:00:10.122Z,14.86
2022-10-05T09:03:06.480Z,14.98
2022-10-05T09:06:11.285Z,15.06
2022-10-05T09:08:59.034Z,15.17
2022-10-05T09:11:36.237Z,15.30
2022-10-05T09:14:30.389Z,15.42
2022-10-05T09:17:22.436Z,15.50
2022-10-05T09:19:59.795Z,15.60
2022-10-05T09:22:42.686Z,15.68
2022-10-05T09:25:27.791Z,15.71
2022-10-05T09:28:04.760Z,15.73
2022-10-05T09:30:52.257Z,15.78
2022-10-05T09:33:51.281Z,15.79
2022-10-05T09:36:54.504Z,15.76
2022-10-05T09:40:01.641Z,15.76
2022-10-05T09:42:54.677Z,15.76
2022-10-05T09:45:41.915Z,15.79
2022-10-05T09:48:45.391Z,15.76
2022-10-05T09:51:54.860Z,15.78
2022-10-05T09:55:02.377Z,15.88
2022-10-05T09:58:13.790Z,15.94
2022-10-05T10:01:08.887Z,16.01
2022-10-05T10:04:24.174Z,16.08
2022-10-05T10:07:32.242Z,16.18
2022-10-05T10:10:23.464Z,16.28
2022-10-05T10:13:07.510Z,16.36
2022-10-05T10:16:03.517Z,16.38
2022-10-05T10:19:11.999Z,16.39
2022-10-05T10:22:20.690Z,16.45
2022-10-05T10:25:01.926Z,16.64
2022-10-05T10:27:53.827Z,16.92
2022-10-05T10:30:54.550Z,17.21
2022-10-05T10:34:09.928Z,17.48
2022-10-05T10:36:58.958Z,17.73
2022-10-05T10:39:44.815Z,17.86
2022-10-05T10:42:37.282Z,17.85
2022-10-05T10:45:19.174Z,17.80
2022-10-05T10:47:59.760Z,17.85
2022-10-05T10:51:04.091Z,18.01
2022-10-05T10:54:03.182Z,18.19
2022-10-05T10:56:41.603Z,18.28
2022-10-05T10:59:40.946Z,18.34
2022-10-05T11:02:27.284Z,18.34
2022-10-05T11:05:16.935Z,18.33
2022-10-05T11:08:13.125Z,18.40
2022-10-05T11:11:12.465Z,18.35
2022-10-05T11:14:05.541Z,18.26
2022-10-05T11:17:07.637Z,18.18
2022-10-05T11:20:06.437Z,18.16
2022-10-05T11:22:58.191Z,18.20
2022-10-05T11:26:01.046Z,18.24
2022-10-05T11:28:46.307Z,18.25
2022-10-05T11:31:47.091Z,18.33
2022-10-05T11:34:45.740Z,18.38
2022-10-05T11:37:48.555Z,18.45
2022-10-05T11:40:47.120Z,18.49
2022-10-05T11:43:37.776Z,18.41
2022-10-05T11:46:14.113Z,18.30
2022-10-05T11:48:54.932Z,18.21
2022-10-05T11:51:34.304Z,18.11
2022-10-05T11:54:20.386Z,17.99
2022-10-05T11:56:56.729Z,17.93
2022-10-05T11:59:34.239Z,17.86
2022-10-05T12:02:26.905Z,17.80
2022-10-05T12:05:03.178Z,17.73
2022-10-05T12:07:41.691Z,17.68
2022-10-05T12:10:30.637Z,17.63
2022-10-05T12:13:18.981Z,17.59
2022-10-05T12:15:54.180Z,17.55
2022-10-05T12:18:42.775Z,17.54
2022-10-05T12:21:15.396Z,17.49
2022-10-05T12:23:51.651Z,17.47
2022-10-05T12:26:26.143Z,17.45
2022-10-05T12:29:01.891Z,17.41
2022-10-05T12:31:41.581Z,17.38
2022-10-05T12:34:20.406Z,17.35
2022-10-05T12:37:06.962Z,17.34
2022-10-05T12:39:43.401Z,17.33
2022-10-05T12:42:25.872Z,17.34
2022-10-05T12:45:06.714Z,17.36
2022-10-05T12:47:53.741Z,17.37
2022-10-05T12:50:27.774Z,17.34
2022-10-05T12:53:13.900Z,17.32
2022-10-05T12:55:53.411Z,17.34
2022-10-05T12:58:33.118Z,17.40
2022-10-05T13:01:09.727Z,17.42
2022-10-05T13:03:42.746Z,17.44
2022-10-05T13:06:18.931Z,17.45
2022-10-05T13:08:58.092Z,17.45
2022-10-05T13:11:38.813Z,17.44
2022-10-05T13:14:25.486Z,17.47
2022-10-05T13:17:04.289Z,17.45
2022-10-05T13:19:39.619Z,17.42
2022-10-05T13:22:31.664Z,17.40
2022-10-05T13:25:18.375Z,17.38
2022-10-05T13:27:54.978Z,17.38
2022-10-05T13:30:23.482Z,17.40
2022-10-05T13:32:57.462Z,17.41
2022-10-05T13:35:40.265Z,17.40
2022-10-05T13:38:21.002Z,17.36
2022-10-05T13:41:01.794Z,17.33
2022-10-05T13:43:39.699Z,17.31
2022-10-05T13:46:18.732Z,17.30
2022-10-05T13:49:00.907Z,17.29
2022-10-05T13:51:39.929Z,17.28
2022-10-05T13:54:20.581Z,17.24
2022-10-05T13:56:54.371Z,17.18
2022-10-05T13:59:32.765Z,17.12
2022-10-05T14:02:07.961Z,17.10
2022-10-05T14:04:46.662Z,17.06
2022-10-05T14:07:29.789Z,17.00
2022-10-05T14:09:59.083Z,16.95
2022-10-05T14:12:40.349Z,16.89
2022-10-05T14:15:22.090Z,16.82
2022-10-05T14:17:52.333Z,16.75
2022-10-05T14:20:27.798Z,16.69
2022-10-05T14:23:01.433Z,16.64
2022-10-05T14:25:30.923Z,16.61
2022-10-05T14:28:03.373Z,16.61
2022-10-05T14:30:32.718Z,16.61
2022-10-05T14:33:15.040Z,16.61
2022-10-05T14:35:49.166Z,16.62
2022-10-05T14:38:21.031Z,16.62
2022-10-05T14:41:05.395Z,16.58
2022-10-05T14:43:35.202Z,16.54
2022-10-05T14:46:28.153Z,16.47
2022-10-05T14:49:20.575Z,16.40
2022-10-05T14:51:49.656Z,16.32
2022-10-05T14:54:34.617Z,16.24
2022-10-05T14:57:22.788Z,16.20
2022-10-05T15:00:04.706Z,16.15
2022-10-05T15:02:52.223Z,16.13
2022-10-05T15:05:30.810Z,16.11
2022-10-05T15:08:08.756Z,16.11
2022-10-05T15:10:40.407Z,16.09
2022-10-05T15:13:18.204Z,16.03
2022-10-05T15:15:54.142Z,15.96
2022-10-05T15:18:40.708Z,15.90
2022-10-05T15:21:29.907Z,15.83
2022-10-05T15:24:04.742Z,15.74
2022-10-05T15:26:46.277Z,15.69
2022-10-05T15:29:27.001Z,15.62
2022-10-05T15:32:07.146Z,15.56
2022-10-05T15:34:41.165Z,15.52
2022-10-05T15:37:16.550Z,15.50
2022-10-05T15:39:53.005Z,15.49
2022-10-05T15:42:33.058Z,15.48
2022-10-05T15:45:07.242Z,15.43
2022-10-05T15:47:46.972Z,15.38
2022-10-05T15:50:22.873Z,15.32
2022-10-05T15:52:56.285Z,15.25
2022-10-05T15:55:47.094Z,15.22
2022-10-05T15:58:46.292Z,15.18
2022-10-05T16:01:18.078Z,15.14
2022-10-05T16:04:02.668Z,15.12
2022-10-05T16:07:01.459Z,15.09
2022-10-05T16:09:44.192Z,15.07
2022-10-05T16:12:33.836Z,15.08
2022-10-05T16:15:19.656Z,15.04
2022-10-05T16:18:00.310Z,14.97
2022-10-05T16:20:41.386Z,14.90
2022-10-05T16:23:23.930Z,14.82
2022-10-05T16:26:03.505Z,14.77
2022-10-05T16:28:45.709Z,14.73
2022-10-05T16:31:21.327Z,14.71
2022-10-05T16:34:06.059Z,14.69
2022-10-05T16:36:50.172Z,14.65
2022-10-05T16:39:23.121Z,14.61
2022-10-05T16:41:58.263Z,14.58
2022-10-05T16:44:38.351Z,14.55
2022-10-05T16:47:40.713Z,14.53
2022-10-05T16:53:12.482Z,14.49
2022-10-05T16:55:44.276Z,14.48
2022-10-05T16:58:21.276Z,14.49
2022-10-05T17:01:11.730Z,14.46
2022-10-05T17:04:02.771Z,14.44
2022-10-05T17:06:53.435Z,14.40
2022-10-05T17:09:45.209Z,14.37
2022-10-05T17:12:32.459Z,14.35
2022-10-05T17:15:14.502Z,14.33
2022-10-05T17:17:58.044Z,14.33
2022-10-05T17:20:42.890Z,14.34
2022-10-05T17:23:31.498Z,14.31
2022-10-05T17:26:16.061Z,14.30
2022-10-05T17:29:08.529Z,14.27
2022-10-05T17:32:10.479Z,14.27
2022-10-05T17:35:00.276Z,14.24
2022-10-05T17:37:36.937Z,14.23
2022-10-05T17:40:31.551Z,14.22
2022-10-05T17:43:02.214Z,14.21
2022-10-05T17:46:05.581Z,14.19
2022-10-05T17:48:40.520Z,14.15
2022-10-05T17:51:56.578Z,14.11
2022-10-05T17:54:47.109Z,14.07
2022-10-05T17:57:27.323Z,14.04
2022-10-05T18:00:02.057Z,14.01
2022-10-05T18:02:42.731Z,13.99
2022-10-05T18:05:27.224Z,13.98
2022-10-05T18:08:33.199Z,13.94
2022-10-05T18:11:16.825Z,13.92
2022-10-05T18:13:49.386Z,13.88
2022-10-05T18:16:50.082Z,13.84
2022-10-05T18:19:21.711Z,13.81
2022-10-05T18:22:26.280Z,13.77
2022-10-05T18:25:05.303Z,13.74
2022-10-05T18:28:00.280Z,13.74
2022-10-05T18:30:36.426Z,13.75
2022-10-05T18:33:32.954Z,13.76
2022-10-05T18:36:26.951Z,13.74
2022-10-05T18:39:03.105Z,13.74
2022-10-05T18:41:47.282Z,13.72
2022-10-05T18:44:41.709Z,13.69
2022-10-05T18:47:18.108Z,13.65
2022-10-05T18:50:00.428Z,13.64
2022-10-05T18:52:43.534Z,13.64
2022-10-05T18:55:19.043Z,13.66
2022-10-05T18:58:16.370Z,13.68
2022-10-05T19:01:13.603Z,13.69
2022-10-05T19:03:51.408Z,13.68
2022-10-05T19:17:24.152Z,13.65
2022-10-05T19:20:12.604Z,13.65
2022-10-05T19:22:53.591Z,13.65
2022-10-05T19:25:36.585Z,13.64
2022-10-05T19:28:18.470Z,13.64
2022-10-05T19:30:59.878Z,13.62
2022-10-05T19:33:41.315Z,13.60
2022-10-05T19:36:25.335Z,13.60
2022-10-05T19:39:03.587Z,13.60
2022-10-05T19:41:51.444Z,13.60
2022-10-05T19:44:29.876Z,13.60
2022-10-05T19:47:05.626Z,13.59
2022-10-05T19:49:49.685Z,13.58
2022-10-05T19:52:24.244Z,13.57
2022-10-05T19:55:15.032Z,13.53
2022-10-05T19:57:48.708Z,13.49
2022-10-05T20:00:24.887Z,13.46
2022-10-05T20:03:10.053Z,13.43
2022-10-05T20:05:39.229Z,13.41
2022-10-05T20:08:11.821Z,13.41
2022-10-05T20:10:40.598Z,13.39
2022-10-05T20:13:21.507Z,13.36
2022-10-05T20:16:26.517Z,13.31
2022-10-05T20:19:13.186Z,13.25
2022-10-05T20:21:54.048Z,13.21
2022-10-05T20:24:29.113Z,13.17
2022-10-05T20:27:05.128Z,13.15
2022-10-05T20:29:36.338Z,13.14
2022-10-05T20:32:08.652Z,13.12
2022-10-05T20:34:40.777Z,13.09
2022-10-05T20:37:10.951Z,13.05
2022-10-05T20:39:40.207Z,13.00
2022-10-05T20:42:09.699Z,12.93
2022-10-05T20:44:38.299Z,12.88
2022-10-05T20:47:09.390Z,12.85
2022-10-05T20:49:40.753Z,12.83
2022-10-05T20:52:11.428Z,12.81
2022-10-05T20:54:39.914Z,12.79
2022-10-05T20:57:09.261Z,12.79
2022-10-05T20:59:38.110Z,12.79
2022-10-05T21:02:07.155Z,12.76
2022-10-05T21:04:40.607Z,12.70
2022-10-05T21:07:10.670Z,12.67
2022-10-05T21:09:42.263Z,12.64
2022-10-05T21:12:11.585Z,12.62
2022-10-05T21:14:42.553Z,12.59
2022-10-05T21:17:12.874Z,12.57
2022-10-05T21:19:43.040Z,12.54
2022-10-05T21:22:11.324Z,12.53
2022-10-05T21:24:40.612Z,12.53
2022-10-05T21:27:10.497Z,12.53
2022-10-05T21:29:40.604Z,12.50
2022-10-05T21:32:10.956Z,12.45
2022-10-05T21:34:39.713Z,12.40
2022-10-05T21:37:08.415Z,12.39
2022-10-05T21:39:38.359Z,12.37
2022-10-05T21:42:06.812Z,12.38
2022-10-05T21:44:35.593Z,12.38
2022-10-05T21:47:06.351Z,12.40
2022-10-05T21:49:35.739Z,12.39
2022-10-05T21:52:05.117Z,12.38
2022-10-05T21:54:34.560Z,12.33
2022-10-05T21:57:05.817Z,12.26
2022-10-05T21:59:34.809Z,12.19
2022-10-05T22:02:04.280Z,12.16
2022-10-05T22:04:34.109Z,12.14
2022-10-05T22:07:17.979Z,12.12
2022-10-05T22:09:47.753Z,12.11
2022-10-05T22:12:18.794Z,12.10
2022-10-05T22:14:47.185Z,12.06
2022-10-05T22:17:22.547Z,11.99
2022-10-05T22:19:51.243Z,11.92
2022-10-05T22:22:20.132Z,11.84
2022-10-05T22:24:48.652Z,11.79
2022-10-05T22:27:18.268Z,11.75
2022-10-05T22:29:47.903Z,11.75
2022-10-05T22:32:19.761Z,11.75
2022-10-05T22:34:51.458Z,11.77
2022-10-05T22:37:20.165Z,11.76
2022-10-05T22:39:48.655Z,11.74
2022-10-05T22:42:16.872Z,11.69
2022-10-05T22:44:45.462Z,11.65
2022-10-05T22:47:14.223Z,11.62
2022-10-05T22:49:42.437Z,11.61
2022-10-05T22:52:10.881Z,11.62
2022-10-05T22:54:39.170Z,11.62
2022-10-05T22:57:07.383Z,11.61
2022-10-05T22:59:36.028Z,11.60
2022-10-05T23:02:04.826Z,11.59
2022-10-05T23:04:33.181Z,11.57
2022-10-05T23:07:02.720Z,11.53
2022-10-05T23:09:30.974Z,11.52
2022-10-05T23:11:59.224Z,11.51
2022-10-05T23:14:30.193Z,11.51
2022-10-05T23:16:59.958Z,11.51
2022-10-05T23:19:28.539Z,11.51
2022-10-05T23:21:56.773Z,11.50
2022-10-05T23:24:25.102Z,11.48
2022-10-05T23:26:55.184Z,11.46
2022-10-05T23:29:23.536Z,11.43
2022-10-05T23:31:52.330Z,11.40
2022-10-05T23:34:20.815Z,11.38
2022-10-05T23:36:49.154Z,11.37
2022-10-05T23:39:17.304Z,11.35
2022-10-05T23:41:45.745Z,11.34
2022-10-05T23:44:14.324Z,11.31
2022-10-05T23:46:42.608Z,11.31
2022-10-05T23:49:11.086Z,11.29
2022-10-05T23:51:39.566Z,11.25
2022-10-05T23:54:07.951Z,11.21
2022-10-05T23:56:36.567Z,11.17
2022-10-05T23:59:05.216Z,11.14
